Time;durP1;ratioP1;P1;durP2;ratioP2;P2;SDS_P1;SDS_P2;PMS_P1;PMS_P2;Temp;Humidity;BMP_temperature;BMP_pressure;BME280_temperature;BME280_humidity;BME280_pressure;Samples;Min_cycle;Max_cycle;Signal;HPM_P1;HPM_P2
2023/12/12 00:03:15;;;;;;;2.95;2.25;;;;;;;6.38;100.00;100766.22;10331590;28;20156;-71
2023/12/12 00:08:15;;;;;;;8.07;3.15;;;;;;;6.32;100.00;100753.47;10332633;28;20030;-72
2023/12/12 00:13:16;;;;;;;10.00;3.40;;;;;;;6.24;100.00;100747.09;10331096;28;20034;-71
2023/12/12 00:18:16;;;;;;;5.40;2.55;;;;;;;6.14;100.00;100748.31;10332791;28;20069;-72
2023/12/12 00:23:17;;;;;;;15.52;4.07;;;;;;;5.96;100.00;100761.97;10334171;28;20359;-72
2023/12/12 00:28:17;;;;;;;9.50;3.45;;;;;;;5.99;100.00;100772.38;10332829;28;20035;-72
2023/12/12 00:33:17;;;;;;;6.15;3.55;;;;;;;5.99;100.00;100761.63;10332610;28;20117;-72
2023/12/12 00:38:18;;;;;;;8.57;3.38;;;;;;;6.11;100.00;100751.34;10332243;28;20046;-71
2023/12/12 00:43:19;;;;;;;2.65;1.98;;;;;;;6.34;100.00;100743.38;10332216;28;20439;-72
2023/12/12 00:48:19;;;;;;;8.45;2.38;;;;;;;6.49;100.00;100734.41;10331652;28;20030;-71
2023/12/12 00:53:20;;;;;;;11.15;3.92;;;;;;;6.71;100.00;100738.16;10332084;28;20051;-72
2023/12/12 00:58:20;;;;;;;9.20;3.47;;;;;;;6.76;100.00;100729.56;10330626;28;20497;-71
2023/12/12 01:03:20;;;;;;;5.60;3.13;;;;;;;6.74;100.00;100718.97;10331108;28;20051;-71
2023/12/12 01:08:21;;;;;;;6.50;3.70;;;;;;;6.75;100.00;100719.81;10331712;28;20042;-72
2023/12/12 01:13:21;;;;;;;6.28;2.70;;;;;;;6.80;100.00;100709.38;10329585;28;20030;-73
2023/12/12 01:18:21;;;;;;;4.20;3.53;;;;;;;6.76;100.00;100716.09;10329772;28;20043;-73
2023/12/12 01:23:22;;;;;;;11.30;3.90;;;;;;;6.65;100.00;100711.97;10329261;28;20042;-73
2023/12/12 01:28:22;;;;;;;12.30;4.63;;;;;;;6.47;100.00;100711.38;10337141;28;20055;-72
2023/12/12 01:33:23;;;;;;;13.52;4.82;;;;;;;6.31;100.00;100706.06;10339108;28;20034;-71
2023/12/12 01:38:24;;;;;;;7.45;3.90;;;;;;;6.07;100.00;100698.94;10337042;28;20509;-72
2023/12/12 01:43:25;;;;;;;10.98;3.58;;;;;;;5.94;100.00;100692.25;10337390;28;20042;-71
2023/12/12 01:48:25;;;;;;;10.68;4.00;;;;;;;5.86;100.00;100700.31;10338211;28;20435;-73
2023/12/12 01:53:27;;;;;;;11.80;5.30;;;;;;;5.78;100.00;100697.66;10338130;28;20050;-71
2023/12/12 01:58:27;;;;;;;15.60;5.32;;;;;;;5.70;100.00;100694.97;10336372;28;20034;-73
2023/12/12 02:03:28;;;;;;;12.07;5.20;;;;;;;5.68;100.00;100697.84;10335978;28;20054;-71
2023/12/12 02:08:28;;;;;;;20.90;6.82;;;;;;;5.61;100.00;100696.81;10320834;28;20352;-71
2023/12/12 02:13:29;;;;;;;13.60;7.65;;;;;;;5.55;100.00;100690.31;10337698;28;20085;-72
2023/12/12 02:18:29;;;;;;;13.45;7.40;;;;;;;5.51;100.00;100690.78;10337861;28;20085;-71
2023/12/12 02:23:30;;;;;;;8.73;6.80;;;;;;;5.42;100.00;100692.66;10337170;28;20338;-71
2023/12/12 02:28:31;;;;;;;8.75;6.40;;;;;;;5.41;100.00;100690.97;10360530;28;20014;-72
2023/12/12 02:33:31;;;;;;;11.70;6.55;;;;;;;5.23;100.00;100683.13;10364532;28;20039;-72
2023/12/12 02:38:31;;;;;;;21.40;7.07;;;;;;;5.23;100.00;100674.19;10341513;28;20390;-71
2023/12/12 02:43:32;;;;;;;9.80;7.22;;;;;;;5.26;100.00;100680.06;10341398;28;20384;-71
2023/12/12 02:48:32;;;;;;;16.48;7.95;;;;;;;5.18;100.00;100687.31;10334537;28;20110;-72
2023/12/12 02:53:33;;;;;;;13.90;7.03;;;;;;;5.13;100.00;100683.25;10336809;28;20061;-73
2023/12/12 02:58:33;;;;;;;18.20;8.40;;;;;;;5.06;100.00;100681.41;10335316;28;20081;-73
2023/12/12 03:03:33;;;;;;;15.70;8.73;;;;;;;5.06;100.00;100665.31;10334270;28;20061;-71
2023/12/12 03:08:34;;;;;;;20.75;8.82;;;;;;;5.09;100.00;100665.81;10334289;28;20042;-72
2023/12/12 03:13:34;;;;;;;20.52;10.20;;;;;;;5.15;100.00;100668.84;10333372;28;20049;-71
2023/12/12 03:18:35;;;;;;;21.27;9.43;;;;;;;5.19;100.00;100660.28;10335431;28;20045;-72
2023/12/12 03:23:35;;;;;;;35.30;11.57;;;;;;;5.18;100.00;100647.88;10334905;28;20054;-72
2023/12/12 03:28:36;;;;;;;20.25;10.80;;;;;;;5.16;100.00;100649.03;10334504;28;20041;-73
2023/12/12 03:33:36;;;;;;;20.50;11.23;;;;;;;5.15;100.00;100658.94;10332420;28;20042;-71
2023/12/12 03:38:36;;;;;;;27.85;12.77;;;;;;;5.15;100.00;100648.22;10334105;28;20415;-71
2023/12/12 03:43:37;;;;;;;16.85;11.90;;;;;;;5.31;100.00;100647.34;10333055;28;20038;-73
2023/12/12 03:48:37;;;;;;;25.42;17.75;;;;;;;5.45;100.00;100635.91;10330858;28;20438;-71
2023/12/12 03:53:41;;;;;;;27.75;16.13;;;;;;;5.45;100.00;100627.03;10331658;28;20058;-71
2023/12/12 03:58:41;;;;;;;21.48;15.30;;;;;;;5.45;100.00;100610.91;10333430;28;20034;-70
2023/12/12 04:03:41;;;;;;;29.95;16.73;;;;;;;5.35;100.00;100608.41;10332616;28;20486;-72
2023/12/12 04:08:42;;;;;;;23.52;13.90;;;;;;;5.29;100.00;100596.50;10333300;28;20038;-71
2023/12/12 04:13:42;;;;;;;21.58;15.60;;;;;;;5.16;100.00;100585.44;10333422;28;20038;-72
2023/12/12 04:18:43;;;;;;;28.88;15.25;;;;;;;5.21;100.00;100571.53;10332505;28;20089;-70
2023/12/12 04:23:43;;;;;;;28.33;15.30;;;;;;;5.36;100.00;100573.34;10331310;28;20119;-71
2023/12/12 04:28:44;;;;;;;23.55;15.60;;;;;;;5.45;100.00;100568.78;10331749;28;20069;-73
2023/12/12 04:33:44;;;;;;;25.10;15.65;;;;;;;5.52;100.00;100566.22;10333229;28;20038;-71
2023/12/12 04:38:45;;;;;;;29.63;15.55;;;;;;;5.63;100.00;100575.78;10331062;28;20105;-72
2023/12/12 04:43:45;;;;;;;28.73;15.32;;;;;;;5.76;100.00;100568.00;10339453;28;20053;-71
2023/12/12 04:48:46;;;;;;;34.20;16.25;;;;;;;5.86;100.00;100574.00;10333532;28;20035;-72
2023/12/12 04:53:46;;;;;;;26.15;16.95;;;;;;;5.91;100.00;100560.06;10332520;28;20490;-74
2023/12/12 04:58:47;;;;;;;39.20;17.05;;;;;;;5.94;100.00;100557.06;10331381;28;20034;-72
2023/12/12 05:03:47;;;;;;;22.05;15.55;;;;;;;6.09;100.00;100571.41;10337951;28;20041;-71
2023/12/12 05:08:48;;;;;;;47.80;17.27;;;;;;;6.14;100.00;100558.28;10340153;28;20041;-71
2023/12/12 05:13:48;;;;;;;35.47;16.65;;;;;;;6.23;100.00;100554.53;10337542;28;20093;-71
2023/12/12 05:18:48;;;;;;;30.92;15.95;;;;;;;6.33;100.00;100554.28;10337939;28;20037;-72
2023/12/12 05:23:49;;;;;;;37.08;18.45;;;;;;;6.42;100.00;100549.69;10337455;28;20133;-73
2023/12/12 05:28:50;;;;;;;30.52;18.55;;;;;;;6.57;100.00;100537.13;10337254;28;20069;-70
2023/12/12 05:33:50;;;;;;;36.08;18.92;;;;;;;6.66;100.00;100541.41;10353371;28;20121;-72
2023/12/12 05:38:51;;;;;;;39.60;20.38;;;;;;;6.69;100.00;100533.00;10338242;28;20034;-72
2023/12/12 05:43:51;;;;;;;42.88;21.05;;;;;;;6.69;100.00;100513.31;10337753;28;20065;-72
2023/12/12 05:48:52;;;;;;;36.50;17.40;;;;;;;6.78;100.00;100520.31;10338775;28;20057;-71
2023/12/12 05:53:52;;;;;;;52.95;20.45;;;;;;;6.85;100.00;100515.88;10289841;28;20080;-71
2023/12/12 05:58:52;;;;;;;49.63;19.55;;;;;;;6.99;100.00;100509.69;10338471;28;20477;-72
2023/12/12 06:03:54;;;;;;;53.00;20.95;;;;;;;7.15;100.00;100510.53;10338367;28;20065;-72
2023/12/12 06:08:54;;;;;;;42.58;17.45;;;;;;;7.24;100.00;100509.41;10337126;28;20053;-71
2023/12/12 06:13:55;;;;;;;49.08;21.92;;;;;;;7.25;100.00;100496.81;10334867;28;20482;-70
2023/12/12 06:18:55;;;;;;;33.80;20.40;;;;;;;7.30;100.00;100494.38;10335607;28;20037;-71
2023/12/12 06:23:56;;;;;;;47.22;20.35;;;;;;;7.31;100.00;100488.81;10266726;28;20133;-71
2023/12/12 06:28:56;;;;;;;52.83;21.77;;;;;;;7.32;100.00;100479.69;10335692;28;20493;-71
2023/12/12 06:33:57;;;;;;;40.33;19.00;;;;;;;7.27;100.00;100482.09;10350419;28;20038;-70
2023/12/12 06:38:57;;;;;;;35.78;20.70;;;;;;;7.21;100.00;100464.84;10333905;28;20034;-71
2023/12/12 06:43:58;;;;;;;34.22;18.05;;;;;;;7.29;100.00;100469.28;10336005;28;20068;-71
2023/12/12 06:48:58;;;;;;;30.50;18.73;;;;;;;7.40;100.00;100465.28;10334305;28;20093;-70
2023/12/12 06:53:59;;;;;;;33.03;15.40;;;;;;;7.47;100.00;100458.16;10333648;28;20497;-70
2023/12/12 06:58:59;;;;;;;32.45;19.33;;;;;;;7.58;100.00;100457.66;10335354;28;20072;-70
2023/12/12 07:04:00;;;;;;;26.25;17.35;;;;;;;7.61;100.00;100449.19;10335603;28;20475;-71
2023/12/12 07:09:01;;;;;;;50.50;21.70;;;;;;;7.77;100.00;100455.38;10335107;28;20045;-72
2023/12/12 07:14:01;;;;;;;34.97;19.52;;;;;;;7.81;100.00;100453.97;10333458;28;20041;-70
2023/12/12 07:19:02;;;;;;;42.40;20.75;;;;;;;7.85;100.00;100455.28;10317345;28;20071;-70
2023/12/12 07:24:04;;;;;;;33.45;18.48;;;;;;;7.91;100.00;100443.69;10332749;28;20038;-72
2023/12/12 07:29:05;;;;;;;31.08;16.55;;;;;;;7.96;100.00;100433.19;10333272;28;20073;-72
2023/12/12 07:34:05;;;;;;;24.27;16.23;;;;;;;7.98;100.00;100420.34;10333165;28;20088;-72
2023/12/12 07:39:06;;;;;;;39.35;18.05;;;;;;;8.00;100.00;100410.19;10333185;28;20042;-71
2023/12/12 07:44:06;;;;;;;25.77;16.40;;;;;;;8.00;100.00;100407.50;10332711;28;20064;-71
2023/12/12 07:49:07;;;;;;;31.05;16.58;;;;;;;7.99;100.00;100408.53;10335025;28;20065;-72
2023/12/12 07:54:07;;;;;;;27.35;14.65;;;;;;;8.00;100.00;100393.19;10331098;28;20056;-71
2023/12/12 07:59:08;;;;;;;25.17;16.52;;;;;;;7.99;100.00;100384.28;10332399;28;20031;-72
2023/12/12 08:04:08;;;;;;;35.92;15.18;;;;;;;7.99;100.00;100384.28;10332862;28;20049;-72
2023/12/12 08:09:08;;;;;;;34.40;17.52;;;;;;;8.01;100.00;100370.59;10333215;28;20053;-72
2023/12/12 08:14:09;;;;;;;18.55;15.77;;;;;;;7.98;100.00;100368.31;10332946;28;20046;-72
2023/12/12 08:19:09;;;;;;;26.55;18.02;;;;;;;7.99;100.00;100360.00;10331273;28;20033;-71
2023/12/12 08:24:10;;;;;;;38.92;18.85;;;;;;;8.07;100.00;100361.72;10331272;28;20034;-72
2023/12/12 08:29:10;;;;;;;27.20;13.88;;;;;;;8.05;100.00;100353.84;10332282;28;20092;-71
2023/12/12 08:34:11;;;;;;;30.58;13.73;;;;;;;8.13;100.00;100355.56;10333182;28;20443;-73
2023/12/12 08:39:13;;;;;;;29.13;14.43;;;;;;;8.14;100.00;100349.16;10338518;28;20038;-71
2023/12/12 08:44:13;;;;;;;18.52;11.38;;;;;;;8.18;100.00;100355.81;10341762;28;20031;-72
2023/12/12 08:49:13;;;;;;;18.85;12.95;;;;;;;8.26;100.00;100344.03;10338891;28;20053;-71
2023/12/12 08:54:14;;;;;;;23.17;11.48;;;;;;;8.31;100.00;100347.00;10340254;28;20069;-71
2023/12/12 08:59:14;;;;;;;40.72;14.40;;;;;;;8.42;100.00;100337.53;10340694;28;20077;-71
2023/12/12 09:04:16;;;;;;;37.67;18.10;;;;;;;8.49;100.00;100330.34;10362263;28;20053;-72
2023/12/12 09:09:16;;;;;;;28.42;16.05;;;;;;;8.56;100.00;100323.94;10375276;28;20496;-73
2023/12/12 09:14:17;;;;;;;27.48;16.42;;;;;;;8.58;100.00;100316.50;10349941;28;20119;-71
2023/12/12 09:19:17;;;;;;;27.88;15.35;;;;;;;8.62;100.00;100316.94;10342899;28;20122;-72
2023/12/12 09:24:18;;;;;;;29.92;14.00;;;;;;;8.65;100.00;100294.94;10338004;28;20026;-71
2023/12/12 09:29:18;;;;;;;22.63;12.77;;;;;;;8.71;100.00;100285.19;10338733;28;20379;-73
2023/12/12 09:34:19;;;;;;;27.98;15.30;;;;;;;8.78;100.00;100284.19;10339059;28;20046;-71
2023/12/12 09:39:19;;;;;;;23.23;11.35;;;;;;;8.84;100.00;100274.47;10338918;28;20129;-71
2023/12/12 09:44:20;;;;;;;22.20;12.95;;;;;;;8.92;100.00;100266.19;10338471;28;20034;-70
2023/12/12 09:49:20;;;;;;;26.88;13.45;;;;;;;9.02;100.00;100255.00;10337782;28;20034;-72
2023/12/12 09:54:20;;;;;;;28.38;14.20;;;;;;;9.15;100.00;100249.63;10338055;28;20133;-71
2023/12/12 09:59:21;;;;;;;30.27;14.10;;;;;;;9.20;100.00;100238.22;10337487;28;20038;-71
2023/12/12 10:04:21;;;;;;;24.45;13.27;;;;;;;9.25;100.00;100231.16;10337136;28;20043;-71
2023/12/12 10:09:22;;;;;;;37.58;14.25;;;;;;;9.22;100.00;100217.22;10335494;28;20038;-71
2023/12/12 10:14:39;;;;;;;23.30;13.35;;;;;;;9.32;100.00;100213.09;10335616;28;20058;-70
2023/12/12 10:19:40;;;;;;;25.70;13.13;;;;;;;9.31;100.00;100211.41;10335153;28;20062;-70
2023/12/12 10:24:41;;;;;;;28.55;13.45;;;;;;;9.26;100.00;100204.97;10335249;28;20561;-72
2023/12/12 10:29:43;;;;;;;28.45;15.35;;;;;;;9.27;100.00;100193.13;10336848;28;20080;-71
2023/12/12 10:34:46;;;;;;;26.38;13.32;;;;;;;9.38;100.00;100178.16;10335847;28;20030;-71
2023/12/12 10:39:47;;;;;;;32.83;13.10;;;;;;;9.42;100.00;100174.84;10336804;28;20034;-73
2023/12/12 10:44:47;;;;;;;26.67;16.38;;;;;;;9.38;100.00;100170.06;10334619;28;20129;-69
2023/12/12 10:49:48;;;;;;;22.73;15.25;;;;;;;9.38;100.00;100160.09;10334063;28;20382;-73
2023/12/12 10:54:48;;;;;;;20.90;13.63;;;;;;;9.35;100.00;100160.50;10334398;28;20053;-71
2023/12/12 10:59:49;;;;;;;23.15;15.60;;;;;;;9.31;100.00;100134.94;10335367;28;20056;-71
2023/12/12 11:04:49;;;;;;;46.42;20.45;;;;;;;9.46;100.00;100124.75;10333022;28;20128;-69
2023/12/12 11:09:50;;;;;;;27.98;15.93;;;;;;;9.50;100.00;100107.06;10302310;28;20092;-71
2023/12/12 11:14:50;;;;;;;30.27;15.93;;;;;;;9.55;100.00;100104.56;10332812;28;20127;-70
2023/12/12 11:19:51;;;;;;;33.00;19.60;;;;;;;9.61;100.00;100099.38;10334806;28;20508;-70
2023/12/12 11:25:10;;;;;;;34.20;19.38;;;;;;;9.63;100.00;100097.28;10332281;28;20112;-69
2023/12/12 11:30:11;;;;;;;42.33;20.60;;;;;;;9.60;100.00;100093.09;10348179;28;20042;-70
2023/12/12 11:35:31;;;;;;;36.28;22.20;;;;;;;9.66;100.00;100081.44;10334637;28;20038;-69
2023/12/12 11:40:33;;;;;;;34.20;20.45;;;;;;;9.66;100.00;100083.34;10334611;28;20041;-71
2023/12/12 11:45:33;;;;;;;1.17;1.17;;;;;;;9.50;100.00;100055.72;10332694;28;20051;-70
2023/12/12 11:50:34;;;;;;;1.58;1.58;;;;;;;9.51;100.00;100051.97;10332603;28;20489;-68
2023/12/12 11:55:42;;;;;;;0.82;0.82;;;;;;;9.61;100.00;100038.03;10334526;28;20083;-68
2023/12/12 12:00:43;;;;;;;0.57;0.57;;;;;;;9.68;100.00;100038.00;10331627;28;20030;-70
2023/12/12 12:05:44;;;;;;;3.20;3.10;;;;;;;9.64;100.00;100032.19;10332917;28;20462;-69
2023/12/12 12:10:57;;;;;;;0.98;0.98;;;;;;;9.60;100.00;100028.25;10299023;28;20027;-68
2023/12/12 12:15:57;;;;;;;0.90;0.90;;;;;;;9.64;100.00;100001.63;10332979;28;20026;-70
2023/12/12 12:20:58;;;;;;;0.93;0.93;;;;;;;9.71;100.00;99987.03;10332872;28;20038;-71
2023/12/12 12:25:59;;;;;;;0.93;0.93;;;;;;;9.72;100.00;99985.16;10331225;28;20529;-70
2023/12/12 12:30:59;;;;;;;0.50;0.50;;;;;;;9.77;100.00;99966.44;10314794;28;20165;-68
2023/12/12 12:36:01;;;;;;;3.53;3.20;;;;;;;9.77;100.00;99969.97;10332207;28;20031;-71
2023/12/12 12:41:01;;;;;;;3.05;2.92;;;;;;;9.96;100.00;99961.97;10313763;28;20118;-71
2023/12/12 12:46:06;;;;;;;1.40;1.40;;;;;;;9.94;100.00;99954.06;10329826;28;20134;-70
2023/12/12 12:51:06;;;;;;;0.55;0.55;;;;;;;9.96;100.00;99943.88;10330184;28;20074;-71
2023/12/12 12:56:07;;;;;;;1.15;1.15;;;;;;;10.02;100.00;99948.41;10330263;28;20544;-71
2023/12/12 13:01:08;;;;;;;0.50;0.50;;;;;;;10.08;100.00;99943.16;10332359;28;20109;-71
2023/12/12 13:06:10;;;;;;;0.77;0.77;;;;;;;10.09;100.00;99939.44;10332708;28;20200;-70
2023/12/12 13:11:10;;;;;;;0.50;0.50;;;;;;;9.98;100.00;99922.00;10333006;28;20366;-74
2023/12/12 13:16:11;;;;;;;0.60;0.60;;;;;;;9.94;100.00;99909.97;10330482;28;20042;-74
2023/12/12 13:21:11;;;;;;;1.30;1.23;;;;;;;9.98;100.00;99901.19;10332373;28;20145;-77
2023/12/12 13:26:11;;;;;;;0.50;0.50;;;;;;;10.05;100.00;99901.16;10340225;28;20129;-76
2023/12/12 13:31:12;;;;;;;0.65;0.65;;;;;;;10.14;100.00;99885.47;10339217;28;20164;-75
2023/12/12 13:36:12;;;;;;;4.47;1.88;;;;;;;10.18;100.00;99881.31;10339401;28;20034;-75
2023/12/12 13:41:13;;;;;;;0.40;0.40;;;;;;;10.16;100.00;99880.69;10337907;28;20112;-77
2023/12/12 13:46:14;;;;;;;0.40;0.40;;;;;;;10.12;100.00;99865.94;10337945;28;20479;-76
2023/12/12 13:51:14;;;;;;;0.88;0.88;;;;;;;10.14;100.00;99861.94;10337322;28;20039;-76
2023/12/12 13:56:15;;;;;;;2.50;2.40;;;;;;;10.23;100.00;99871.47;10339265;28;20062;-76
2023/12/12 14:01:16;;;;;;;0.80;0.80;;;;;;;10.17;100.00;99856.09;10337072;28;20149;-78
2023/12/12 14:06:17;;;;;;;1.42;1.42;;;;;;;10.22;100.00;99864.41;10338027;28;20113;-76
2023/12/12 14:11:23;;;;;;;0.80;0.80;;;;;;;10.32;100.00;99853.09;10336999;28;20121;-77
2023/12/12 14:16:24;;;;;;;0.93;0.93;;;;;;;10.36;100.00;99831.84;10338968;28;20049;-76
2023/12/12 14:21:25;;;;;;;3.20;2.35;;;;;;;10.40;100.00;99836.59;10336601;28;20106;-76
2023/12/12 14:26:25;;;;;;;0.40;0.40;;;;;;;10.29;100.00;99822.97;10335088;28;20042;-75
2023/12/12 14:31:26;;;;;;;0.52;0.52;;;;;;;10.35;100.00;99831.03;10337416;28;20045;-74
2023/12/12 14:36:26;;;;;;;3.13;2.92;;;;;;;10.29;100.00;99825.66;10320555;28;20110;-75
2023/12/12 14:41:28;;;;;;;1.38;1.27;;;;;;;10.28;100.00;99822.13;10335448;28;20398;-76
2023/12/12 14:46:29;;;;;;;0.77;0.77;;;;;;;10.24;100.00;99810.91;10335642;28;20447;-75
2023/12/12 14:51:29;;;;;;;0.47;0.47;;;;;;;10.28;100.00;99818.63;10337275;28;20030;-74
2023/12/12 14:56:30;;;;;;;0.50;0.50;;;;;;;10.29;100.00;99814.84;10337299;28;20137;-76
2023/12/12 15:01:31;;;;;;;0.43;0.43;;;;;;;10.19;100.00;99816.13;10336731;28;20169;-77
2023/12/12 15:06:32;;;;;;;0.40;0.40;;;;;;;10.19;100.00;99812.63;10336421;28;20043;-75
2023/12/12 15:11:32;;;;;;;2.00;1.90;;;;;;;10.23;100.00;99805.69;10335714;28;20030;-75
2023/12/12 15:16:32;;;;;;;0.30;0.30;;;;;;;10.19;100.00;99808.03;10335147;28;20128;-75
2023/12/12 15:21:33;;;;;;;0.40;0.40;;;;;;;10.12;100.00;99795.63;10335718;28;20039;-75
2023/12/12 15:26:34;;;;;;;0.50;0.50;;;;;;;10.01;100.00;99797.16;10319317;28;20041;-76
2023/12/12 15:31:34;;;;;;;0.40;0.40;;;;;;;9.96;100.00;99788.88;10335969;28;20034;-75
2023/12/12 15:36:35;;;;;;;0.30;0.30;;;;;;;10.00;100.00;99782.81;10334251;28;20230;-77
2023/12/12 15:41:35;;;;;;;0.40;0.40;;;;;;;9.98;100.00;99774.06;10334859;28;20034;-75
2023/12/12 15:46:35;;;;;;;0.50;0.50;;;;;;;9.87;100.00;99764.00;10332755;28;20053;-75
2023/12/12 15:51:37;;;;;;;0.40;0.40;;;;;;;9.90;100.00;99757.31;10334164;28;20486;-74
2023/12/12 15:56:38;;;;;;;0.82;0.82;;;;;;;9.99;100.00;99767.63;10331327;28;20050;-75
2023/12/12 16:01:38;;;;;;;0.50;0.50;;;;;;;10.16;100.00;99748.13;10331613;28;20034;-74
2023/12/12 16:06:39;;;;;;;0.85;0.85;;;;;;;10.22;100.00;99750.75;10333377;28;20383;-73
2023/12/12 16:11:41;;;;;;;1.27;1.27;;;;;;;10.13;100.00;99735.03;10333989;28;20042;-75
2023/12/12 16:16:42;;;;;;;1.45;1.45;;;;;;;10.05;100.00;99738.88;10333291;28;20034;-72
2023/12/12 16:21:43;;;;;;;0.90;0.90;;;;;;;10.11;100.00;99715.50;10332592;28;20041;-75
2023/12/12 16:26:43;;;;;;;3.30;1.80;;;;;;;10.21;100.00;99726.63;10332017;28;20490;-74
2023/12/12 16:31:43;;;;;;;0.82;0.82;;;;;;;10.21;100.00;99715.81;10334833;28;20042;-74
2023/12/12 16:36:44;;;;;;;0.73;0.73;;;;;;;10.02;100.00;99707.69;10331631;28;20026;-75
2023/12/12 16:41:45;;;;;;;0.60;0.60;;;;;;;9.81;100.00;99712.69;10333843;28;20439;-78
2023/12/12 16:46:45;;;;;;;0.60;0.60;;;;;;;9.76;100.00;99692.53;10333269;28;20041;-74
2023/12/12 16:51:46;;;;;;;0.50;0.50;;;;;;;9.77;100.00;99694.19;10333561;28;20089;-75
2023/12/12 16:56:46;;;;;;;0.70;0.70;;;;;;;9.86;100.00;99685.78;10356859;28;20062;-75
2023/12/12 17:01:46;;;;;;;0.50;0.50;;;;;;;9.91;100.00;99688.66;10380338;28;20050;-75
2023/12/12 17:06:47;;;;;;;0.65;0.65;;;;;;;9.94;100.00;99682.81;10353477;28;20057;-74
2023/12/12 17:11:47;;;;;;;0.35;0.35;;;;;;;9.86;100.00;99677.66;10344228;28;20450;-74
2023/12/12 17:16:49;;;;;;;0.90;0.90;;;;;;;9.84;100.00;99683.31;10341397;28;20113;-74
2023/12/12 17:21:52;;;;;;;0.90;0.90;;;;;;;9.78;100.00;99676.09;10338233;28;20094;-76
2023/12/12 17:26:52;;;;;;;0.40;0.40;;;;;;;9.86;100.00;99681.22;10338266;28;20034;-75
2023/12/12 17:31:54;;;;;;;1.35;1.30;;;;;;;9.91;100.00;99684.06;10337760;28;20046;-75
2023/12/12 17:36:54;;;;;;;0.57;0.57;;;;;;;9.99;100.00;99680.25;10339016;28;20057;-75
2023/12/12 17:41:55;;;;;;;0.80;0.80;;;;;;;9.94;100.00;99678.22;10338940;28;20501;-75
2023/12/12 17:46:57;;;;;;;0.68;0.68;;;;;;;9.86;100.00;99675.81;10340127;28;20045;-74
2023/12/12 17:51:58;;;;;;;1.23;1.23;;;;;;;9.79;100.00;99664.22;10338700;28;20133;-75
2023/12/12 17:56:58;;;;;;;2.60;1.52;;;;;;;9.45;100.00;99671.81;10339673;28;20061;-74
2023/12/12 18:01:59;;;;;;;0.50;0.50;;;;;;;9.38;100.00;99679.16;10339739;28;20421;-74
2023/12/12 18:06:59;;;;;;;1.38;1.38;;;;;;;9.34;100.00;99668.97;10339809;28;20080;-72
2023/12/12 18:12:00;;;;;;;0.50;0.50;;;;;;;9.41;100.00;99656.25;10336650;28;20061;-72
2023/12/12 18:17:03;;;;;;;1.85;1.17;;;;;;;9.29;100.00;99669.66;10338123;28;20108;-73
2023/12/12 18:22:04;;;;;;;1.58;1.50;;;;;;;8.95;100.00;99647.44;10337810;28;20545;-73
2023/12/12 18:27:05;;;;;;;0.40;0.40;;;;;;;8.85;100.00;99626.31;10337687;28;20194;-74
2023/12/12 18:32:06;;;;;;;0.40;0.40;;;;;;;8.87;100.00;99636.91;10336806;28;20394;-73
2023/12/12 18:37:07;;;;;;;0.50;0.50;;;;;;;8.81;100.00;99645.88;10336437;28;20030;-73
2023/12/12 18:42:08;;;;;;;0.40;0.40;;;;;;;8.74;100.00;99651.31;10335861;28;20112;-73
2023/12/12 18:47:08;;;;;;;0.50;0.50;;;;;;;8.61;100.00;99656.75;10337231;28;20096;-73
2023/12/12 18:52:09;;;;;;;0.60;0.60;;;;;;;8.52;100.00;99636.47;10336143;28;20104;-72
2023/12/12 18:57:10;;;;;;;0.70;0.70;;;;;;;8.59;100.00;99640.78;10337998;28;20090;-73
2023/12/12 19:02:10;;;;;;;0.50;0.50;;;;;;;8.63;100.00;99634.97;10336038;28;20041;-73
2023/12/12 19:07:11;;;;;;;0.60;0.60;;;;;;;8.46;100.00;99615.75;10334474;28;20045;-74
2023/12/12 19:12:11;;;;;;;0.40;0.40;;;;;;;8.46;100.00;99613.88;10335028;28;20046;-72
2023/12/12 19:17:12;;;;;;;0.40;0.40;;;;;;;8.45;100.00;99620.31;10334216;28;20074;-74
2023/12/12 19:22:12;;;;;;;0.60;0.60;;;;;;;8.43;100.00;99611.63;10335067;28;20484;-73
2023/12/12 19:27:12;;;;;;;0.68;0.68;;;;;;;8.43;100.00;99611.63;10335712;28;20113;-75
2023/12/12 19:32:13;;;;;;;0.45;0.45;;;;;;;8.44;100.00;99605.16;10335367;28;20065;-73
2023/12/12 19:37:13;;;;;;;0.50;0.50;;;;;;;8.50;100.00;99588.13;10334665;28;20042;-74
2023/12/12 19:42:14;;;;;;;0.77;0.77;;;;;;;8.45;100.00;99587.94;10334214;28;20165;-75
2023/12/12 19:47:14;;;;;;;0.60;0.60;;;;;;;8.41;100.00;99586.72;10334568;28;20038;-74
2023/12/12 19:52:15;;;;;;;0.45;0.45;;;;;;;8.43;100.00;99581.13;10334074;28;20056;-74
2023/12/12 19:57:15;;;;;;;0.30;0.30;;;;;;;8.41;100.00;99580.50;10335361;28;20087;-75
2023/12/12 20:02:16;;;;;;;0.43;0.43;;;;;;;8.40;100.00;99576.16;10333280;28;20109;-75
2023/12/12 20:07:16;;;;;;;0.50;0.50;;;;;;;8.34;100.00;99573.22;10335668;28;20041;-75
2023/12/12 20:12:17;;;;;;;1.05;1.05;;;;;;;8.34;100.00;99572.41;10334780;28;20045;-74
2023/12/12 20:17:17;;;;;;;0.80;0.80;;;;;;;8.32;100.00;99580.69;10333649;28;20034;-76
2023/12/12 20:22:20;;;;;;;0.98;0.98;;;;;;;8.32;100.00;99571.78;10331799;28;20134;-74
2023/12/12 20:27:21;;;;;;;0.40;0.40;;;;;;;8.34;100.00;99573.22;10332689;28;20449;-75
2023/12/12 20:32:21;;;;;;;0.50;0.50;;;;;;;8.40;100.00;99568.88;10338774;28;20034;-75
2023/12/12 20:37:22;;;;;;;0.95;0.95;;;;;;;8.51;100.00;99581.66;10340757;28;20156;-73
2023/12/12 20:42:22;;;;;;;0.90;0.90;;;;;;;8.46;100.00;99584.22;10341595;28;20478;-76
2023/12/12 20:47:23;;;;;;;0.70;0.70;;;;;;;8.45;100.00;99585.22;10342755;28;20485;-74
2023/12/12 20:52:24;;;;;;;0.70;0.68;;;;;;;8.41;100.00;99592.09;10340870;28;20042;-76
2023/12/12 20:57:24;;;;;;;0.50;0.50;;;;;;;8.32;100.00;99590.66;10342540;28;20054;-73
2023/12/12 21:02:25;;;;;;;0.40;0.40;;;;;;;8.32;100.00;99588.78;10340368;28;20644;-74
2023/12/12 21:07:25;;;;;;;0.30;0.30;;;;;;;8.31;100.00;99589.03;10341036;28;20038;-74
2023/12/12 21:12:27;;;;;;;1.38;1.38;;;;;;;8.27;100.00;99577.03;10340241;28;20096;-74
2023/12/12 21:17:27;;;;;;;0.30;0.30;;;;;;;8.24;100.00;99582.84;10340479;28;20031;-73
2023/12/12 21:22:28;;;;;;;0.40;0.40;;;;;;;8.15;100.00;99580.38;10341568;28;20481;-77
2023/12/12 21:27:28;;;;;;;0.40;0.40;;;;;;;8.13;100.00;99571.66;10339969;28;20120;-75
2023/12/12 21:32:29;;;;;;;0.30;0.30;;;;;;;8.16;100.00;99573.94;10340432;28;20094;-74
2023/12/12 21:37:29;;;;;;;0.60;0.60;;;;;;;8.19;100.00;99571.84;10340947;28;20085;-74
2023/12/12 21:42:30;;;;;;;2.15;2.05;;;;;;;8.13;100.00;99574.34;10339016;28;20106;-74
2023/12/12 21:47:32;;;;;;;0.47;0.47;;;;;;;8.12;100.00;99580.81;10322177;28;20438;-74
2023/12/12 21:52:32;;;;;;;0.32;0.32;;;;;;;8.12;100.00;99572.72;10338166;28;20117;-74
2023/12/12 21:57:33;;;;;;;3.25;3.15;;;;;;;8.09;100.00;99578.53;10340005;28;20043;-75
2023/12/12 22:02:33;;;;;;;0.40;0.40;;;;;;;7.97;100.00;99572.16;10340174;28;20037;-75
2023/12/12 22:07:34;;;;;;;0.50;0.50;;;;;;;8.04;100.00;99574.81;10345257;28;20359;-76
2023/12/12 22:12:35;;;;;;;1.85;1.75;;;;;;;7.95;100.00;99565.34;10357912;28;20042;-75
2023/12/12 22:17:36;;;;;;;0.60;0.60;;;;;;;8.00;100.00;99569.03;10369519;28;20084;-76
2023/12/12 22:22:38;;;;;;;0.40;0.40;;;;;;;7.95;100.00;99568.84;10342271;28;20038;-75
2023/12/12 22:27:39;;;;;;;2.45;2.35;;;;;;;8.00;100.00;99563.63;10339319;28;20038;-77
2023/12/12 22:32:39;;;;;;;0.40;0.40;;;;;;;8.00;100.00;99563.63;10337076;28;20049;-75
2023/12/12 22:37:39;;;;;;;1.25;1.25;;;;;;;8.09;100.00;99566.94;10336244;28;20493;-76
2023/12/12 22:42:40;;;;;;;0.50;0.50;;;;;;;8.15;100.00;99566.06;10336378;28;20087;-76
2023/12/12 22:47:40;;;;;;;1.00;1.00;;;;;;;8.13;100.00;99562.75;10336420;28;20042;-74
2023/12/12 22:52:40;;;;;;;0.50;0.50;;;;;;;8.14;100.00;99559.84;10335252;28;20053;-75
2023/12/12 22:57:41;;;;;;;0.43;0.43;;;;;;;8.19;100.00;99571.84;10337513;28;20383;-75